sensor_id;sensor_type;location;lat;lon;timestamp;temperature;humidity
43346;DHT22;28937;51.160;4.146;2023-04-24T00:02:11;17.10;93.00
43346;DHT22;28937;51.160;4.146;2023-04-24T00:04:38;17.00;92.70
43346;DHT22;28937;51.160;4.146;2023-04-24T00:07:07;17.10;92.90
43346;DHT22;28937;51.160;4.146;2023-04-24T00:09:33;17.00;93.00
43346;DHT22;28937;51.160;4.146;2023-04-24T00:11:59;17.00;93.20
43346;DHT22;28937;51.160;4.146;2023-04-24T00:14:25;17.00;93.10
43346;DHT22;28937;51.160;4.146;2023-04-24T00:16:50;17.00;93.60
43346;DHT22;28937;51.160;4.146;2023-04-24T00:19:17;17.00;93.20
43346;DHT22;28937;51.160;4.146;2023-04-24T00:21:42;17.00;93.30
43346;DHT22;28937;51.160;4.146;2023-04-24T00:24:08;17.10;93.50
43346;DHT22;28937;51.160;4.146;2023-04-24T00:26:34;17.00;93.40
43346;DHT22;28937;51.160;4.146;2023-04-24T00:29:00;17.00;93.20
43346;DHT22;28937;51.160;4.146;2023-04-24T00:31:25;17.00;93.10
43346;DHT22;28937;51.160;4.146;2023-04-24T00:33:51;16.90;92.90
43346;DHT22;28937;51.160;4.146;2023-04-24T00:36:17;16.90;92.80
43346;DHT22;28937;51.160;4.146;2023-04-24T00:38:44;16.80;92.50
43346;DHT22;28937;51.160;4.146;2023-04-24T00:41:11;16.80;92.70
43346;DHT22;28937;51.160;4.146;2023-04-24T00:43:36;16.80;92.70
43346;DHT22;28937;51.160;4.146;2023-04-24T00:46:02;16.80;92.80
43346;DHT22;28937;51.160;4.146;2023-04-24T00:48:28;16.70;92.80
43346;DHT22;28937;51.160;4.146;2023-04-24T00:50:53;16.70;92.60
43346;DHT22;28937;51.160;4.146;2023-04-24T00:53:19;16.70;93.00
43346;DHT22;28937;51.160;4.146;2023-04-24T00:55:45;16.80;92.90
43346;DHT22;28937;51.160;4.146;2023-04-24T00:58:11;16.80;93.00
43346;DHT22;28937;51.160;4.146;2023-04-24T01:00:37;16.70;92.90
43346;DHT22;28937;51.160;4.146;2023-04-24T01:03:04;16.70;92.80
43346;DHT22;28937;51.160;4.146;2023-04-24T01:05:31;16.70;92.90
43346;DHT22;28937;51.160;4.146;2023-04-24T01:07:58;16.70;93.00
43346;DHT22;28937;51.160;4.146;2023-04-24T01:10:25;16.70;92.80
43346;DHT22;28937;51.160;4.146;2023-04-24T01:12:53;16.70;93.70
43346;DHT22;28937;51.160;4.146;2023-04-24T01:15:18;16.70;93.10
43346;DHT22;28937;51.160;4.146;2023-04-24T01:17:44;16.70;92.90
43346;DHT22;28937;51.160;4.146;2023-04-24T01:20:10;16.60;92.90
43346;DHT22;28937;51.160;4.146;2023-04-24T01:22:36;16.60;93.00
43346;DHT22;28937;51.160;4.146;2023-04-24T01:25:02;16.60;93.00
43346;DHT22;28937;51.160;4.146;2023-04-24T01:27:28;16.60;92.90
43346;DHT22;28937;51.160;4.146;2023-04-24T01:29:54;16.60;92.80
43346;DHT22;28937;51.160;4.146;2023-04-24T01:32:20;16.60;93.00
43346;DHT22;28937;51.160;4.146;2023-04-24T01:34:46;16.50;92.60
43346;DHT22;28937;51.160;4.146;2023-04-24T01:37:13;16.50;93.00
43346;DHT22;28937;51.160;4.146;2023-04-24T01:39:38;16.50;92.90
43346;DHT22;28937;51.160;4.146;2023-04-24T01:42:05;16.50;93.30
43346;DHT22;28937;51.160;4.146;2023-04-24T01:44:31;16.50;93.20
43346;DHT22;28937;51.160;4.146;2023-04-24T01:46:57;16.50;93.30
43346;DHT22;28937;51.160;4.146;2023-04-24T01:49:22;16.50;93.20
43346;DHT22;28937;51.160;4.146;2023-04-24T01:51:48;16.50;93.20
43346;DHT22;28937;51.160;4.146;2023-04-24T01:54:14;16.50;93.30
43346;DHT22;28937;51.160;4.146;2023-04-24T01:56:42;16.50;93.30
43346;DHT22;28937;51.160;4.146;2023-04-24T01:59:10;16.40;93.00
43346;DHT22;28937;51.160;4.146;2023-04-24T02:01:36;16.50;93.50
43346;DHT22;28937;51.160;4.146;2023-04-24T02:04:02;16.40;93.20
43346;DHT22;28937;51.160;4.146;2023-04-24T02:06:28;16.40;93.10
43346;DHT22;28937;51.160;4.146;2023-04-24T02:08:54;16.40;93.30
43346;DHT22;28937;51.160;4.146;2023-04-24T02:11:20;16.30;93.20
43346;DHT22;28937;51.160;4.146;2023-04-24T02:13:45;16.40;93.40
43346;DHT22;28937;51.160;4.146;2023-04-24T02:16:11;16.30;93.60
43346;DHT22;28937;51.160;4.146;2023-04-24T02:18:36;16.30;93.40
43346;DHT22;28937;51.160;4.146;2023-04-24T02:21:02;16.30;93.60
43346;DHT22;28937;51.160;4.146;2023-04-24T02:23:27;16.20;93.30
43346;DHT22;28937;51.160;4.146;2023-04-24T02:25:53;16.20;93.30
43346;DHT22;28937;51.160;4.146;2023-04-24T02:28:19;16.20;93.50
43346;DHT22;28937;51.160;4.146;2023-04-24T02:30:45;16.20;93.60
43346;DHT22;28937;51.160;4.146;2023-04-24T02:33:11;16.20;93.60
43346;DHT22;28937;51.160;4.146;2023-04-24T02:35:37;16.20;93.60
43346;DHT22;28937;51.160;4.146;2023-04-24T02:38:02;16.20;93.60
43346;DHT22;28937;51.160;4.146;2023-04-24T02:40:28;16.10;93.60
43346;DHT22;28937;51.160;4.146;2023-04-24T02:42:54;16.00;93.80
43346;DHT22;28937;51.160;4.146;2023-04-24T02:45:20;16.00;93.90
43346;DHT22;28937;51.160;4.146;2023-04-24T02:47:45;16.00;93.90
43346;DHT22;28937;51.160;4.146;2023-04-24T02:50:11;15.90;94.10
43346;DHT22;28937;51.160;4.146;2023-04-24T02:52:37;15.90;94.20
43346;DHT22;28937;51.160;4.146;2023-04-24T02:55:02;16.00;94.20
43346;DHT22;28937;51.160;4.146;2023-04-24T02:57:28;15.90;94.30
43346;DHT22;28937;51.160;4.146;2023-04-24T02:59:53;15.90;94.30
43346;DHT22;28937;51.160;4.146;2023-04-24T03:02:19;15.90;94.30
43346;DHT22;28937;51.160;4.146;2023-04-24T03:04:46;15.80;94.40
43346;DHT22;28937;51.160;4.146;2023-04-24T03:07:13;15.80;94.50
43346;DHT22;28937;51.160;4.146;2023-04-24T03:09:40;15.80;94.50
43346;DHT22;28937;51.160;4.146;2023-04-24T03:12:06;15.80;94.50
43346;DHT22;28937;51.160;4.146;2023-04-24T03:14:31;15.80;94.60
43346;DHT22;28937;51.160;4.146;2023-04-24T03:16:57;15.70;94.60
43346;DHT22;28937;51.160;4.146;2023-04-24T03:19:23;15.70;94.90
43346;DHT22;28937;51.160;4.146;2023-04-24T03:21:49;15.70;94.80
43346;DHT22;28937;51.160;4.146;2023-04-24T03:24:14;15.70;94.80
43346;DHT22;28937;51.160;4.146;2023-04-24T03:26:40;15.70;94.90
43346;DHT22;28937;51.160;4.146;2023-04-24T03:29:05;15.70;94.80
43346;DHT22;28937;51.160;4.146;2023-04-24T03:31:31;15.70;94.90
43346;DHT22;28937;51.160;4.146;2023-04-24T03:33:56;15.70;94.70
43346;DHT22;28937;51.160;4.146;2023-04-24T03:36:22;15.70;94.60
43346;DHT22;28937;51.160;4.146;2023-04-24T03:38:48;15.70;94.50
43346;DHT22;28937;51.160;4.146;2023-04-24T03:41:13;15.70;94.60
43346;DHT22;28937;51.160;4.146;2023-04-24T03:43:39;15.70;94.60
43346;DHT22;28937;51.160;4.146;2023-04-24T03:46:04;15.70;94.70
43346;DHT22;28937;51.160;4.146;2023-04-24T03:48:30;15.60;94.60
43346;DHT22;28937;51.160;4.146;2023-04-24T03:50:55;15.70;94.70
43346;DHT22;28937;51.160;4.146;2023-04-24T03:53:21;15.60;94.60
43346;DHT22;28937;51.160;4.146;2023-04-24T03:55:47;15.60;94.70
43346;DHT22;28937;51.160;4.146;2023-04-24T03:58:12;15.60;94.90
43346;DHT22;28937;51.160;4.146;2023-04-24T04:00:41;15.60;94.80
43346;DHT22;28937;51.160;4.146;2023-04-24T04:03:07;15.60;94.70
43346;DHT22;28937;51.160;4.146;2023-04-24T04:05:32;15.50;94.80
43346;DHT22;28937;51.160;4.146;2023-04-24T04:07:58;15.50;94.70
43346;DHT22;28937;51.160;4.146;2023-04-24T04:10:23;15.60;94.70
43346;DHT22;28937;51.160;4.146;2023-04-24T04:12:49;15.50;94.80
43346;DHT22;28937;51.160;4.146;2023-04-24T04:15:15;15.50;94.60
43346;DHT22;28937;51.160;4.146;2023-04-24T04:17:40;15.60;94.80
43346;DHT22;28937;51.160;4.146;2023-04-24T04:20:07;15.60;94.70
43346;DHT22;28937;51.160;4.146;2023-04-24T04:22:35;15.60;94.80
43346;DHT22;28937;51.160;4.146;2023-04-24T04:25:01;15.60;94.60
43346;DHT22;28937;51.160;4.146;2023-04-24T04:27:27;15.60;94.50
43346;DHT22;28937;51.160;4.146;2023-04-24T04:29:54;15.60;94.50
43346;DHT22;28937;51.160;4.146;2023-04-24T04:32:21;15.50;94.60
43346;DHT22;28937;51.160;4.146;2023-04-24T04:34:47;15.40;94.50
43346;DHT22;28937;51.160;4.146;2023-04-24T04:37:14;15.00;94.60
43346;DHT22;28937;51.160;4.146;2023-04-24T04:39:40;14.80;96.00
43346;DHT22;28937;51.160;4.146;2023-04-24T04:42:06;14.60;95.10
43346;DHT22;28937;51.160;4.146;2023-04-24T04:44:32;14.40;95.40
43346;DHT22;28937;51.160;4.146;2023-04-24T04:46:58;14.20;96.30
43346;DHT22;28937;51.160;4.146;2023-04-24T04:49:25;14.20;97.10
43346;DHT22;28937;51.160;4.146;2023-04-24T04:51:53;14.00;96.40
43346;DHT22;28937;51.160;4.146;2023-04-24T04:54:19;14.00;96.90
43346;DHT22;28937;51.160;4.146;2023-04-24T04:56:45;13.80;97.10
43346;DHT22;28937;51.160;4.146;2023-04-24T04:59:10;13.60;97.40
43346;DHT22;28937;51.160;4.146;2023-04-24T05:01:36;13.50;97.60
43346;DHT22;28937;51.160;4.146;2023-04-24T05:04:02;13.40;97.80
43346;DHT22;28937;51.160;4.146;2023-04-24T05:06:27;13.50;97.50
43346;DHT22;28937;51.160;4.146;2023-04-24T05:08:53;13.40;97.50
43346;DHT22;28937;51.160;4.146;2023-04-24T05:11:22;13.50;97.40
43346;DHT22;28937;51.160;4.146;2023-04-24T05:13:48;13.40;97.40
43346;DHT22;28937;51.160;4.146;2023-04-24T05:16:13;13.30;97.50
43346;DHT22;28937;51.160;4.146;2023-04-24T05:18:39;13.30;97.70
43346;DHT22;28937;51.160;4.146;2023-04-24T05:21:05;13.30;98.00
43346;DHT22;28937;51.160;4.146;2023-04-24T05:23:31;13.20;97.90
43346;DHT22;28937;51.160;4.146;2023-04-24T05:25:56;13.10;98.20
43346;DHT22;28937;51.160;4.146;2023-04-24T05:28:22;13.10;99.20
43346;DHT22;28937;51.160;4.146;2023-04-24T05:30:48;13.10;99.10
43346;DHT22;28937;51.160;4.146;2023-04-24T05:33:14;13.30;98.70
43346;DHT22;28937;51.160;4.146;2023-04-24T05:35:42;13.50;98.60
43346;DHT22;28937;51.160;4.146;2023-04-24T05:38:12;13.50;98.60
43346;DHT22;28937;51.160;4.146;2023-04-24T05:40:38;13.60;98.20
43346;DHT22;28937;51.160;4.146;2023-04-24T05:43:04;13.60;98.20
43346;DHT22;28937;51.160;4.146;2023-04-24T05:45:30;13.50;98.20
43346;DHT22;28937;51.160;4.146;2023-04-24T05:47:56;13.70;98.30
43346;DHT22;28937;51.160;4.146;2023-04-24T05:50:21;13.70;98.30
43346;DHT22;28937;51.160;4.146;2023-04-24T05:52:47;13.80;98.50
43346;DHT22;28937;51.160;4.146;2023-04-24T05:55:12;13.80;98.40
43346;DHT22;28937;51.160;4.146;2023-04-24T05:57:38;13.90;98.50
43346;DHT22;28937;51.160;4.146;2023-04-24T06:00:05;13.80;98.40
43346;DHT22;28937;51.160;4.146;2023-04-24T06:02:31;13.80;98.40
43346;DHT22;28937;51.160;4.146;2023-04-24T06:04:58;13.80;98.20
43346;DHT22;28937;51.160;4.146;2023-04-24T06:07:25;13.80;98.40
43346;DHT22;28937;51.160;4.146;2023-04-24T06:09:52;13.90;98.50
43346;DHT22;28937;51.160;4.146;2023-04-24T06:12:17;14.00;98.50
43346;DHT22;28937;51.160;4.146;2023-04-24T06:14:43;14.20;99.00
43346;DHT22;28937;51.160;4.146;2023-04-24T06:17:09;14.40;99.70
43346;DHT22;28937;51.160;4.146;2023-04-24T06:19:35;14.40;98.90
43346;DHT22;28937;51.160;4.146;2023-04-24T06:22:00;14.50;99.30
43346;DHT22;28937;51.160;4.146;2023-04-24T06:24:29;14.50;99.40
43346;DHT22;28937;51.160;4.146;2023-04-24T06:26:55;14.50;98.90
43346;DHT22;28937;51.160;4.146;2023-04-24T06:29:22;14.50;98.80
43346;DHT22;28937;51.160;4.146;2023-04-24T06:31:48;14.60;99.00
43346;DHT22;28937;51.160;4.146;2023-04-24T06:34:13;14.70;99.00
43346;DHT22;28937;51.160;4.146;2023-04-24T06:36:39;14.60;98.90
43346;DHT22;28937;51.160;4.146;2023-04-24T06:39:05;14.60;98.60
43346;DHT22;28937;51.160;4.146;2023-04-24T06:41:30;14.70;98.80
43346;DHT22;28937;51.160;4.146;2023-04-24T06:43:56;14.70;98.80
43346;DHT22;28937;51.160;4.146;2023-04-24T06:46:21;14.70;98.30
43346;DHT22;28937;51.160;4.146;2023-04-24T06:48:49;14.70;98.80
43346;DHT22;28937;51.160;4.146;2023-04-24T06:51:15;14.80;98.20
43346;DHT22;28937;51.160;4.146;2023-04-24T06:53:42;14.70;97.80
43346;DHT22;28937;51.160;4.146;2023-04-24T06:56:08;14.70;98.40
43346;DHT22;28937;51.160;4.146;2023-04-24T06:58:34;14.70;97.80
43346;DHT22;28937;51.160;4.146;2023-04-24T07:00:59;14.80;97.60
43346;DHT22;28937;51.160;4.146;2023-04-24T07:03:25;14.80;97.80
43346;DHT22;28937;51.160;4.146;2023-04-24T07:05:50;14.70;97.20
43346;DHT22;28937;51.160;4.146;2023-04-24T07:08:16;14.70;97.70
43346;DHT22;28937;51.160;4.146;2023-04-24T07:10:48;14.70;97.70
43346;DHT22;28937;51.160;4.146;2023-04-24T07:13:14;14.70;97.70
43346;DHT22;28937;51.160;4.146;2023-04-24T07:15:40;14.80;97.70
43346;DHT22;28937;51.160;4.146;2023-04-24T07:18:06;14.70;97.10
43346;DHT22;28937;51.160;4.146;2023-04-24T07:20:32;14.70;97.20
43346;DHT22;28937;51.160;4.146;2023-04-24T07:22:58;14.70;97.20
43346;DHT22;28937;51.160;4.146;2023-04-24T07:25:24;14.70;97.40
43346;DHT22;28937;51.160;4.146;2023-04-24T07:27:49;14.70;97.30
43346;DHT22;28937;51.160;4.146;2023-04-24T07:30:15;14.60;97.20
43346;DHT22;28937;51.160;4.146;2023-04-24T07:32:41;14.80;97.90
43346;DHT22;28937;51.160;4.146;2023-04-24T07:35:06;14.90;97.70
43346;DHT22;28937;51.160;4.146;2023-04-24T07:37:32;14.90;97.30
43346;DHT22;28937;51.160;4.146;2023-04-24T07:39:58;14.90;97.50
43346;DHT22;28937;51.160;4.146;2023-04-24T07:42:23;14.90;97.60
43346;DHT22;28937;51.160;4.146;2023-04-24T07:44:49;14.90;97.50
43346;DHT22;28937;51.160;4.146;2023-04-24T07:47:16;14.90;97.10
43346;DHT22;28937;51.160;4.146;2023-04-24T07:49:42;14.80;97.00
43346;DHT22;28937;51.160;4.146;2023-04-24T07:52:08;14.70;97.10
43346;DHT22;28937;51.160;4.146;2023-04-24T07:54:33;14.70;96.90
43346;DHT22;28937;51.160;4.146;2023-04-24T07:56:59;14.70;96.90
43346;DHT22;28937;51.160;4.146;2023-04-24T07:59:26;14.60;97.10
43346;DHT22;28937;51.160;4.146;2023-04-24T08:01:51;14.70;97.30
43346;DHT22;28937;51.160;4.146;2023-04-24T08:04:18;14.80;97.20
43346;DHT22;28937;51.160;4.146;2023-04-24T08:06:43;14.80;97.50
43346;DHT22;28937;51.160;4.146;2023-04-24T08:09:09;14.90;97.30
43346;DHT22;28937;51.160;4.146;2023-04-24T08:11:35;15.00;97.20
43346;DHT22;28937;51.160;4.146;2023-04-24T08:14:00;15.00;97.20
43346;DHT22;28937;51.160;4.146;2023-04-24T08:16:27;15.10;97.00
43346;DHT22;28937;51.160;4.146;2023-04-24T08:18:53;15.20;96.80
43346;DHT22;28937;51.160;4.146;2023-04-24T08:21:18;15.20;96.20
43346;DHT22;28937;51.160;4.146;2023-04-24T08:23:45;15.20;96.40
43346;DHT22;28937;51.160;4.146;2023-04-24T08:26:12;15.30;95.70
43346;DHT22;28937;51.160;4.146;2023-04-24T08:28:38;15.10;95.40
43346;DHT22;28937;51.160;4.146;2023-04-24T08:31:03;15.20;95.50
43346;DHT22;28937;51.160;4.146;2023-04-24T08:33:29;15.20;95.30
43346;DHT22;28937;51.160;4.146;2023-04-24T08:36:04;15.10;95.30
43346;DHT22;28937;51.160;4.146;2023-04-24T08:38:29;15.10;95.20
43346;DHT22;28937;51.160;4.146;2023-04-24T08:40:57;15.10;95.30
43346;DHT22;28937;51.160;4.146;2023-04-24T08:43:23;15.10;95.10
43346;DHT22;28937;51.160;4.146;2023-04-24T08:45:50;15.00;95.00
43346;DHT22;28937;51.160;4.146;2023-04-24T08:48:16;14.90;95.00
43346;DHT22;28937;51.160;4.146;2023-04-24T08:50:42;14.90;95.10
43346;DHT22;28937;51.160;4.146;2023-04-24T08:53:10;14.90;95.60
43346;DHT22;28937;51.160;4.146;2023-04-24T08:55:37;14.90;95.30
43346;DHT22;28937;51.160;4.146;2023-04-24T08:58:02;14.90;95.10
43346;DHT22;28937;51.160;4.146;2023-04-24T09:00:29;15.00;95.20
43346;DHT22;28937;51.160;4.146;2023-04-24T09:02:55;15.10;95.90
43346;DHT22;28937;51.160;4.146;2023-04-24T09:05:21;15.10;96.00
43346;DHT22;28937;51.160;4.146;2023-04-24T09:07:53;15.30;96.20
43346;DHT22;28937;51.160;4.146;2023-04-24T09:10:24;15.30;95.80
43346;DHT22;28937;51.160;4.146;2023-04-24T09:12:51;15.40;95.90
43346;DHT22;28937;51.160;4.146;2023-04-24T09:15:18;15.50;95.40
43346;DHT22;28937;51.160;4.146;2023-04-24T09:17:44;15.50;95.20
43346;DHT22;28937;51.160;4.146;2023-04-24T09:20:10;15.60;95.10
43346;DHT22;28937;51.160;4.146;2023-04-24T09:22:36;15.50;94.30
43346;DHT22;28937;51.160;4.146;2023-04-24T09:25:09;15.60;95.30
43346;DHT22;28937;51.160;4.146;2023-04-24T09:27:41;15.60;95.40
43346;DHT22;28937;51.160;4.146;2023-04-24T09:30:09;15.70;94.50
43346;DHT22;28937;51.160;4.146;2023-04-24T09:32:35;15.60;94.50
43346;DHT22;28937;51.160;4.146;2023-04-24T09:37:46;15.70;94.70
43346;DHT22;28937;51.160;4.146;2023-04-24T09:40:14;15.70;94.20
43346;DHT22;28937;51.160;4.146;2023-04-24T09:42:51;15.70;94.20
43346;DHT22;28937;51.160;4.146;2023-04-24T09:45:17;15.80;94.00
43346;DHT22;28937;51.160;4.146;2023-04-24T09:47:43;15.80;95.00
43346;DHT22;28937;51.160;4.146;2023-04-24T09:50:16;15.80;94.20
43346;DHT22;28937;51.160;4.146;2023-04-24T09:52:56;15.80;93.70
43346;DHT22;28937;51.160;4.146;2023-04-24T09:55:21;15.90;95.90
43346;DHT22;28937;51.160;4.146;2023-04-24T09:57:51;15.90;94.90
43346;DHT22;28937;51.160;4.146;2023-04-24T10:00:31;16.00;96.20
43346;DHT22;28937;51.160;4.146;2023-04-24T10:02:57;16.10;96.10
43346;DHT22;28937;51.160;4.146;2023-04-24T10:05:24;16.10;96.90
43346;DHT22;28937;51.160;4.146;2023-04-24T10:07:51;16.10;96.80
43346;DHT22;28937;51.160;4.146;2023-04-24T10:10:16;16.10;96.10
43346;DHT22;28937;51.160;4.146;2023-04-24T10:12:43;16.10;95.90
43346;DHT22;28937;51.160;4.146;2023-04-24T10:15:10;16.10;94.50
43346;DHT22;28937;51.160;4.146;2023-04-24T10:17:37;16.10;94.40
43346;DHT22;28937;51.160;4.146;2023-04-24T10:20:05;16.10;93.80
43346;DHT22;28937;51.160;4.146;2023-04-24T10:22:32;16.00;91.60
43346;DHT22;28937;51.160;4.146;2023-04-24T10:24:58;16.00;92.00
43346;DHT22;28937;51.160;4.146;2023-04-24T10:27:26;16.00;93.20
43346;DHT22;28937;51.160;4.146;2023-04-24T10:29:53;16.00;91.90
43346;DHT22;28937;51.160;4.146;2023-04-24T10:32:19;16.00;91.80
43346;DHT22;28937;51.160;4.146;2023-04-24T10:34:44;16.00;92.00
43346;DHT22;28937;51.160;4.146;2023-04-24T10:37:10;15.90;91.00
43346;DHT22;28937;51.160;4.146;2023-04-24T10:39:36;16.00;90.70
43346;DHT22;28937;51.160;4.146;2023-04-24T10:42:14;15.90;90.70
43346;DHT22;28937;51.160;4.146;2023-04-24T10:44:41;15.90;91.60
43346;DHT22;28937;51.160;4.146;2023-04-24T10:47:13;16.10;96.80
43346;DHT22;28937;51.160;4.146;2023-04-24T10:49:38;16.20;97.60
43346;DHT22;28937;51.160;4.146;2023-04-24T10:52:05;16.30;97.60
43346;DHT22;28937;51.160;4.146;2023-04-24T10:54:46;16.30;98.60
43346;DHT22;28937;51.160;4.146;2023-04-24T10:59:52;16.50;98.40
43346;DHT22;28937;51.160;4.146;2023-04-24T11:02:38;16.50;98.70
43346;DHT22;28937;51.160;4.146;2023-04-24T11:05:06;16.50;97.60
43346;DHT22;28937;51.160;4.146;2023-04-24T11:10:39;16.30;92.20
43346;DHT22;28937;51.160;4.146;2023-04-24T11:13:04;16.30;92.60
43346;DHT22;28937;51.160;4.146;2023-04-24T11:15:30;16.30;92.30
43346;DHT22;28937;51.160;4.146;2023-04-24T11:17:56;16.30;91.10
43346;DHT22;28937;51.160;4.146;2023-04-24T11:20:23;16.20;91.10
43346;DHT22;28937;51.160;4.146;2023-04-24T11:22:53;16.30;93.50
43346;DHT22;28937;51.160;4.146;2023-04-24T11:25:21;16.40;95.80
43346;DHT22;28937;51.160;4.146;2023-04-24T11:27:47;16.50;96.30
43346;DHT22;28937;51.160;4.146;2023-04-24T11:30:19;16.50;97.80
43346;DHT22;28937;51.160;4.146;2023-04-24T11:32:50;16.60;96.20
43346;DHT22;28937;51.160;4.146;2023-04-24T11:35:21;16.60;96.30
43346;DHT22;28937;51.160;4.146;2023-04-24T11:37:50;16.50;91.50
43346;DHT22;28937;51.160;4.146;2023-04-24T11:40:17;16.50;90.30
43346;DHT22;28937;51.160;4.146;2023-04-24T11:42:52;16.50;90.90
43346;DHT22;28937;51.160;4.146;2023-04-24T11:45:25;16.40;90.00
43346;DHT22;28937;51.160;4.146;2023-04-24T11:47:52;16.40;90.10
43346;DHT22;28937;51.160;4.146;2023-04-24T11:50:21;16.40;90.40
43346;DHT22;28937;51.160;4.146;2023-04-24T11:52:48;16.50;90.10
43346;DHT22;28937;51.160;4.146;2023-04-24T11:57:42;16.40;89.60
43346;DHT22;28937;51.160;4.146;2023-04-24T12:00:15;16.40;88.20
43346;DHT22;28937;51.160;4.146;2023-04-24T12:02:41;16.50;91.10
43346;DHT22;28937;51.160;4.146;2023-04-24T12:05:07;16.50;91.00
43346;DHT22;28937;51.160;4.146;2023-04-24T12:07:41;16.50;90.80
43346;DHT22;28937;51.160;4.146;2023-04-24T12:10:10;16.50;90.60
43346;DHT22;28937;51.160;4.146;2023-04-24T12:12:36;16.60;91.00
43346;DHT22;28937;51.160;4.146;2023-04-24T12:15:07;16.50;90.50
43346;DHT22;28937;51.160;4.146;2023-04-24T12:17:34;16.50;87.70
43346;DHT22;28937;51.160;4.146;2023-04-24T12:20:02;16.60;88.40
43346;DHT22;28937;51.160;4.146;2023-04-24T12:22:46;16.60;90.40
43346;DHT22;28937;51.160;4.146;2023-04-24T12:25:19;16.70;90.40
43346;DHT22;28937;51.160;4.146;2023-04-24T12:27:46;16.60;89.90
43346;DHT22;28937;51.160;4.146;2023-04-24T12:30:15;16.70;89.30
43346;DHT22;28937;51.160;4.146;2023-04-24T12:32:49;16.70;90.30
43346;DHT22;28937;51.160;4.146;2023-04-24T12:35:23;16.70;88.00
43346;DHT22;28937;51.160;4.146;2023-04-24T12:37:49;16.70;89.30
43346;DHT22;28937;51.160;4.146;2023-04-24T12:40:16;16.70;88.40
43346;DHT22;28937;51.160;4.146;2023-04-24T12:42:47;16.70;86.80
43346;DHT22;28937;51.160;4.146;2023-04-24T12:45:13;16.70;87.00
43346;DHT22;28937;51.160;4.146;2023-04-24T12:47:40;16.60;86.00
43346;DHT22;28937;51.160;4.146;2023-04-24T12:50:07;16.60;85.30
43346;DHT22;28937;51.160;4.146;2023-04-24T12:52:33;16.60;90.20
43346;DHT22;28937;51.160;4.146;2023-04-24T12:55:00;16.70;90.20
43346;DHT22;28937;51.160;4.146;2023-04-24T12:57:27;16.70;86.80
43346;DHT22;28937;51.160;4.146;2023-04-24T12:59:57;16.60;84.80
43346;DHT22;28937;51.160;4.146;2023-04-24T13:02:28;16.60;85.60
43346;DHT22;28937;51.160;4.146;2023-04-24T13:04:55;16.60;83.60
43346;DHT22;28937;51.160;4.146;2023-04-24T13:07:21;16.50;82.80
43346;DHT22;28937;51.160;4.146;2023-04-24T13:09:48;16.60;82.30
43346;DHT22;28937;51.160;4.146;2023-04-24T13:12:15;16.60;82.60
43346;DHT22;28937;51.160;4.146;2023-04-24T13:14:41;16.50;83.60
43346;DHT22;28937;51.160;4.146;2023-04-24T13:17:07;16.60;84.70
43346;DHT22;28937;51.160;4.146;2023-04-24T13:19:38;16.70;85.00
43346;DHT22;28937;51.160;4.146;2023-04-24T13:22:04;16.70;83.10
43346;DHT22;28937;51.160;4.146;2023-04-24T13:24:30;16.70;83.40
43346;DHT22;28937;51.160;4.146;2023-04-24T13:26:56;16.70;82.70
43346;DHT22;28937;51.160;4.146;2023-04-24T13:29:22;16.70;81.40
43346;DHT22;28937;51.160;4.146;2023-04-24T13:31:50;16.70;80.70
43346;DHT22;28937;51.160;4.146;2023-04-24T13:34:17;16.80;81.50
43346;DHT22;28937;51.160;4.146;2023-04-24T13:36:42;16.80;80.50
43346;DHT22;28937;51.160;4.146;2023-04-24T13:39:08;16.80;81.30
43346;DHT22;28937;51.160;4.146;2023-04-24T13:41:34;16.70;80.40
43346;DHT22;28937;51.160;4.146;2023-04-24T13:44:02;16.70;79.70
43346;DHT22;28937;51.160;4.146;2023-04-24T13:46:28;16.80;81.00
43346;DHT22;28937;51.160;4.146;2023-04-24T13:48:53;16.80;81.00
43346;DHT22;28937;51.160;4.146;2023-04-24T13:51:19;16.80;79.90
43346;DHT22;28937;51.160;4.146;2023-04-24T13:53:45;16.80;79.90
43346;DHT22;28937;51.160;4.146;2023-04-24T13:56:10;16.80;79.70
43346;DHT22;28937;51.160;4.146;2023-04-24T13:58:38;16.70;80.10
43346;DHT22;28937;51.160;4.146;2023-04-24T14:01:04;16.70;82.00
43346;DHT22;28937;51.160;4.146;2023-04-24T14:03:29;16.70;83.00
43346;DHT22;28937;51.160;4.146;2023-04-24T14:05:55;16.70;81.60
43346;DHT22;28937;51.160;4.146;2023-04-24T14:08:21;16.70;82.20
43346;DHT22;28937;51.160;4.146;2023-04-24T14:10:46;16.80;82.80
43346;DHT22;28937;51.160;4.146;2023-04-24T14:13:12;16.80;86.70
43346;DHT22;28937;51.160;4.146;2023-04-24T14:15:38;16.80;84.90
43346;DHT22;28937;51.160;4.146;2023-04-24T14:18:04;16.80;82.00
43346;DHT22;28937;51.160;4.146;2023-04-24T14:20:30;16.90;87.50
43346;DHT22;28937;51.160;4.146;2023-04-24T14:22:56;16.80;81.90
43346;DHT22;28937;51.160;4.146;2023-04-24T14:25:24;16.80;84.30
43346;DHT22;28937;51.160;4.146;2023-04-24T14:27:50;16.90;90.00
43346;DHT22;28937;51.160;4.146;2023-04-24T14:30:17;17.00;89.20
43346;DHT22;28937;51.160;4.146;2023-04-24T14:32:42;17.00;90.40
43346;DHT22;28937;51.160;4.146;2023-04-24T14:35:08;17.10;91.10
43346;DHT22;28937;51.160;4.146;2023-04-24T14:37:34;17.00;90.40
43346;DHT22;28937;51.160;4.146;2023-04-24T14:40:01;17.10;88.60
43346;DHT22;28937;51.160;4.146;2023-04-24T14:42:26;17.10;87.10
43346;DHT22;28937;51.160;4.146;2023-04-24T14:44:54;17.00;84.20
43346;DHT22;28937;51.160;4.146;2023-04-24T14:47:20;17.20;92.30
43346;DHT22;28937;51.160;4.146;2023-04-24T14:49:47;17.20;92.00
43346;DHT22;28937;51.160;4.146;2023-04-24T14:52:13;17.20;88.70
43346;DHT22;28937;51.160;4.146;2023-04-24T14:54:38;17.10;82.70
43346;DHT22;28937;51.160;4.146;2023-04-24T14:57:04;17.00;81.60
43346;DHT22;28937;51.160;4.146;2023-04-24T14:59:30;17.10;90.10
43346;DHT22;28937;51.160;4.146;2023-04-24T15:01:57;17.10;90.80
43346;DHT22;28937;51.160;4.146;2023-04-24T15:04:26;17.10;88.20
43346;DHT22;28937;51.160;4.146;2023-04-24T15:06:52;17.10;88.90
43346;DHT22;28937;51.160;4.146;2023-04-24T15:09:21;17.20;84.40
43346;DHT22;28937;51.160;4.146;2023-04-24T15:11:48;17.20;82.40
43346;DHT22;28937;51.160;4.146;2023-04-24T15:14:14;17.10;83.90
43346;DHT22;28937;51.160;4.146;2023-04-24T15:16:40;17.10;79.00
43346;DHT22;28937;51.160;4.146;2023-04-24T15:19:05;17.00;78.20
43346;DHT22;28937;51.160;4.146;2023-04-24T15:21:31;17.00;78.40
43346;DHT22;28937;51.160;4.146;2023-04-24T15:23:57;17.00;80.10
43346;DHT22;28937;51.160;4.146;2023-04-24T15:26:23;16.90;80.40
43346;DHT22;28937;51.160;4.146;2023-04-24T15:28:49;16.90;80.60
43346;DHT22;28937;51.160;4.146;2023-04-24T15:31:15;17.00;81.80
43346;DHT22;28937;51.160;4.146;2023-04-24T15:33:40;17.00;80.20
43346;DHT22;28937;51.160;4.146;2023-04-24T15:36:06;17.00;82.10
43346;DHT22;28937;51.160;4.146;2023-04-24T15:38:32;17.00;82.00